Time;durP1;ratioP1;P1;durP2;ratioP2;P2;SDS_P1;SDS_P2;PMS_P1;PMS_P2;Temp;Humidity;BMP_temperature;BMP_pressure;BME280_temperature;BME280_humidity;BME280_pressure;Samples;Min_cycle;Max_cycle;Signal;HPM_P1;HPM_P2
2021/08/11 00:00:19;;;;;;;19.65;13.07;;;;;;;;;;5061204;28;20519;-85
2021/08/11 00:02:45;;;;;;;19.20;12.68;;;;;;;;;;5060088;28;20388;-85
2021/08/11 00:05:10;;;;;;;23.05;14.23;;;;;;;;;;5065821;28;20154;-84
2021/08/11 00:07:36;;;;;;;16.80;12.05;;;;;;;;;;5062180;28;20480;-85
2021/08/11 00:10:04;;;;;;;18.92;13.02;;;;;;;;;;5061066;28;20545;-85
2021/08/11 00:12:29;;;;;;;18.92;12.88;;;;;;;;;;5060323;28;20021;-85
2021/08/11 00:14:55;;;;;;;17.63;12.93;;;;;;;;;;5060398;28;20028;-86
2021/08/11 00:17:20;;;;;;;18.75;12.93;;;;;;;;;;5060712;28;20029;-85
2021/08/11 00:19:46;;;;;;;20.52;12.80;;;;;;;;;;5059714;28;20029;-85
2021/08/11 00:22:11;;;;;;;19.70;12.88;;;;;;;;;;5059539;28;20545;-84
2021/08/11 00:24:37;;;;;;;20.52;12.48;;;;;;;;;;5059857;28;20034;-84
2021/08/11 00:27:02;;;;;;;16.67;12.13;;;;;;;;;;5058990;28;20047;-85
2021/08/11 00:29:28;;;;;;;20.00;12.25;;;;;;;;;;5059769;28;20017;-85
2021/08/11 00:31:53;;;;;;;17.77;12.65;;;;;;;;;;5062012;28;20017;-85
2021/08/11 00:34:18;;;;;;;20.67;13.40;;;;;;;;;;5060948;28;20053;-85
2021/08/11 00:36:44;;;;;;;19.38;13.52;;;;;;;;;;5061443;28;20091;-84
2021/08/11 00:39:09;;;;;;;22.85;13.82;;;;;;;;;;5064019;28;20032;-86
2021/08/11 00:41:35;;;;;;;20.30;12.93;;;;;;;;;;5064617;28;20025;-85
2021/08/11 00:44:00;;;;;;;22.00;13.40;;;;;;;;;;5064842;28;20124;-85
2021/08/11 00:46:26;;;;;;;20.80;12.38;;;;;;;;;;5064365;28;20032;-86
2021/08/11 00:48:51;;;;;;;18.00;11.85;;;;;;;;;;5045987;28;20021;-85
2021/08/11 00:51:17;;;;;;;16.95;12.75;;;;;;;;;;5063451;28;20021;-84
2021/08/11 00:53:48;;;;;;;18.38;12.60;;;;;;;;;;5070011;28;20029;-84
2021/08/11 00:56:18;;;;;;;19.95;13.13;;;;;;;;;;5065789;28;20100;-85
2021/08/11 00:58:43;;;;;;;19.00;13.65;;;;;;;;;;5047270;28;20033;-85
2021/08/11 01:01:09;;;;;;;22.83;13.30;;;;;;;;;;5066129;28;20021;-84
2021/08/11 01:03:35;;;;;;;20.77;13.43;;;;;;;;;;5065751;28;20051;-85
2021/08/11 01:06:02;;;;;;;20.00;12.82;;;;;;;;;;5070847;28;20074;-86
2021/08/11 01:08:29;;;;;;;16.98;13.68;;;;;;;;;;5068299;28;20431;-87
2021/08/11 01:10:57;;;;;;;20.35;13.48;;;;;;;;;;5065976;28;20025;-87
2021/08/11 01:13:23;;;;;;;20.30;13.57;;;;;;;;;;5046264;28;20036;-87
2021/08/11 01:15:48;;;;;;;18.88;13.48;;;;;;;;;;5062493;28;20032;-85
2021/08/11 01:18:16;;;;;;;23.17;15.07;;;;;;;;;;5063675;28;20084;-85
2021/08/11 01:21:04;;;;;;;21.80;14.38;;;;;;;;;;5065325;28;20051;-85
2021/08/11 01:23:42;;;;;;;22.38;14.95;;;;;;;;;;5066362;28;20017;-84
2021/08/11 01:26:19;;;;;;;28.27;15.32;;;;;;;;;;5066696;28;20017;-85
2021/08/11 01:28:58;;;;;;;21.25;14.07;;;;;;;;;;5066219;28;20028;-87
2021/08/11 01:31:49;;;;;;;22.75;14.20;;;;;;;;;;5065868;28;20039;-85
2021/08/11 01:34:37;;;;;;;20.63;13.52;;;;;;;;;;5040417;28;20041;-86
2021/08/11 01:37:07;;;;;;;22.80;13.32;;;;;;;;;;5064647;28;20095;-85
2021/08/11 01:39:43;;;;;;;21.20;14.15;;;;;;;;;;5066548;28;20025;-84
2021/08/11 01:42:29;;;;;;;21.40;13.52;;;;;;;;;;5070833;28;20035;-84
2021/08/11 01:45:12;;;;;;;25.42;14.93;;;;;;;;;;5067802;28;20055;-85
2021/08/11 01:47:54;;;;;;;21.33;14.45;;;;;;;;;;5067380;28;20471;-85
2021/08/11 01:50:21;;;;;;;29.98;14.90;;;;;;;;;;5066189;28;20028;-86
2021/08/11 01:52:49;;;;;;;22.30;14.63;;;;;;;;;;5070738;28;20016;-84
2021/08/11 01:55:14;;;;;;;22.85;13.57;;;;;;;;;;5068397;28;20025;-84
2021/08/11 01:57:44;;;;;;;20.60;13.93;;;;;;;;;;5065594;28;20021;-85
2021/08/11 02:00:11;;;;;;;23.02;13.00;;;;;;;;;;5065649;28;20473;-84
2021/08/11 02:02:37;;;;;;;17.23;12.98;;;;;;;;;;5047469;28;20021;-84
2021/08/11 02:05:08;;;;;;;22.13;14.32;;;;;;;;;;5047805;28;20022;-86
2021/08/11 02:07:33;;;;;;;23.50;13.13;;;;;;;;;;5047428;28;20021;-84
2021/08/11 02:10:00;;;;;;;19.50;13.50;;;;;;;;;;5047207;28;20021;-84
2021/08/11 02:12:26;;;;;;;20.27;14.02;;;;;;;;;;5065688;28;20546;-84
2021/08/11 02:14:52;;;;;;;22.52;14.95;;;;;;;;;;5066262;28;20029;-85
2021/08/11 02:17:19;;;;;;;27.60;15.23;;;;;;;;;;5066226;28;20074;-85
2021/08/11 02:19:44;;;;;;;25.00;15.20;;;;;;;;;;5065101;28;20028;-84
2021/08/11 02:22:11;;;;;;;24.35;15.52;;;;;;;;;;5047908;28;20032;-84
2021/08/11 02:24:37;;;;;;;30.17;15.55;;;;;;;;;;5065713;28;20092;-85
2021/08/11 02:27:25;;;;;;;28.63;17.17;;;;;;;;;;5065171;28;20028;-85
2021/08/11 02:30:08;;;;;;;80.22;17.17;;;;;;;;;;5065917;28;20059;-85
2021/08/11 02:32:54;;;;;;;84.68;16.98;;;;;;;;;;5060015;28;20036;-85
2021/08/11 02:35:37;;;;;;;162.18;18.83;;;;;;;;;;5064727;28;20025;-84
2021/08/11 02:38:08;;;;;;;131.48;19.38;;;;;;;;;;5046621;28;20048;-86
2021/08/11 02:40:52;;;;;;;145.85;19.35;;;;;;;;;;5067664;28;20039;-85
2021/08/11 02:43:32;;;;;;;97.88;18.98;;;;;;;;;;5071288;28;20495;-85
2021/08/11 02:46:02;;;;;;;70.57;18.55;;;;;;;;;;5066365;28;20452;-84
2021/08/11 02:48:29;;;;;;;138.88;18.40;;;;;;;;;;5066313;28;20434;-84
2021/08/11 02:50:55;;;;;;;129.93;19.38;;;;;;;;;;5047791;28;20093;-86
2021/08/11 02:53:24;;;;;;;83.38;19.58;;;;;;;;;;5065732;28;20046;-85
2021/08/11 02:55:50;;;;;;;94.25;19.30;;;;;;;;;;5066204;28;20028;-85
2021/08/11 02:58:20;;;;;;;104.55;19.70;;;;;;;;;;5065541;28;20028;-86
2021/08/11 03:00:47;;;;;;;108.22;19.23;;;;;;;;;;5064529;28;20094;-85
2021/08/11 03:03:14;;;;;;;72.38;19.98;;;;;;;;;;5069853;28;20033;-85
2021/08/11 03:05:39;;;;;;;107.30;17.98;;;;;;;;;;5066784;28;20078;-84
2021/08/11 03:08:06;;;;;;;87.78;19.15;;;;;;;;;;5065692;28;20490;-84
2021/08/11 03:10:32;;;;;;;128.88;20.45;;;;;;;;;;5066113;28;20044;-84
2021/08/11 03:12:58;;;;;;;139.40;20.25;;;;;;;;;;5081732;28;20024;-85
2021/08/11 03:15:27;;;;;;;113.32;23.35;;;;;;;;;;5048954;28;20021;-86
2021/08/11 03:17:52;;;;;;;92.10;21.58;;;;;;;;;;5049964;28;20029;-87
2021/08/11 03:20:17;;;;;;;83.50;18.23;;;;;;;;;;5069293;28;20047;-86
2021/08/11 03:22:43;;;;;;;73.85;18.63;;;;;;;;;;5060567;28;20029;-83
2021/08/11 03:25:09;;;;;;;56.67;18.48;;;;;;;;;;5057418;28;20435;-83
2021/08/11 03:27:34;;;;;;;78.03;19.10;;;;;;;;;;5039027;28;20024;-84
2021/08/11 03:30:00;;;;;;;80.40;18.67;;;;;;;;;;5056213;28;20082;-83
2021/08/11 03:32:25;;;;;;;59.95;18.13;;;;;;;;;;5055961;28;20018;-83
2021/08/11 03:34:50;;;;;;;71.13;17.23;;;;;;;;;;5037957;28;20025;-84
2021/08/11 03:37:16;;;;;;;60.72;17.40;;;;;;;;;;5055351;28;20391;-86
2021/08/11 03:39:45;;;;;;;70.45;18.08;;;;;;;;;;5054430;28;20052;-84
2021/08/11 03:42:10;;;;;;;61.10;18.13;;;;;;;;;;5054904;28;20400;-84
2021/08/11 03:44:36;;;;;;;50.35;17.25;;;;;;;;;;5054846;28;20028;-84
2021/08/11 03:47:03;;;;;;;74.90;17.95;;;;;;;;;;5063937;28;20032;-86
2021/08/11 03:49:28;;;;;;;82.78;16.80;;;;;;;;;;5074043;28;20105;-85
2021/08/11 03:51:54;;;;;;;121.60;17.25;;;;;;;;;;5057909;28;20017;-84
2021/08/11 03:54:19;;;;;;;62.20;17.45;;;;;;;;;;5073070;28;20035;-85
2021/08/11 03:56:44;;;;;;;98.68;16.67;;;;;;;;;;5057501;28;20035;-85
2021/08/11 03:59:10;;;;;;;114.10;17.70;;;;;;;;;;5057225;28;20017;-84
2021/08/11 04:01:35;;;;;;;111.75;16.83;;;;;;;;;;5056421;28;20032;-84
2021/08/11 04:04:00;;;;;;;65.25;17.67;;;;;;;;;;5062157;28;20077;-84
2021/08/11 04:06:26;;;;;;;70.43;18.27;;;;;;;;;;5058460;28;20025;-85
2021/08/11 04:08:51;;;;;;;70.10;17.83;;;;;;;;;;5054647;28;20131;-84
2021/08/11 04:11:16;;;;;;;95.53;18.38;;;;;;;;;;5070240;28;20025;-84
2021/08/11 04:13:42;;;;;;;60.72;18.58;;;;;;;;;;5072563;28;20029;-84
2021/08/11 04:16:07;;;;;;;90.25;18.45;;;;;;;;;;5061902;28;20025;-84
2021/08/11 04:18:32;;;;;;;91.18;17.85;;;;;;;;;;5065017;28;20041;-86
2021/08/11 04:20:58;;;;;;;92.93;18.35;;;;;;;;;;5057950;28;20036;-86
2021/08/11 04:23:23;;;;;;;74.63;18.02;;;;;;;;;;5056838;28;20013;-85
2021/08/11 04:25:49;;;;;;;102.55;17.75;;;;;;;;;;5057191;28;20495;-85
2021/08/11 04:28:14;;;;;;;95.15;17.95;;;;;;;;;;5056740;28;20093;-85
2021/08/11 04:30:42;;;;;;;81.70;19.17;;;;;;;;;;5071537;28;20024;-84
2021/08/11 04:33:08;;;;;;;76.72;17.90;;;;;;;;;;5071837;28;20507;-85
2021/08/11 04:35:36;;;;;;;61.38;17.73;;;;;;;;;;5056095;28;20033;-84
2021/08/11 04:38:01;;;;;;;105.07;18.50;;;;;;;;;;5054790;28;20056;-84
2021/08/11 04:40:26;;;;;;;136.68;18.88;;;;;;;;;;5053333;28;20060;-84
2021/08/11 04:42:52;;;;;;;101.63;18.35;;;;;;;;;;5054281;28;20048;-84
2021/08/11 04:45:17;;;;;;;131.80;18.08;;;;;;;;;;5054474;28;20052;-84
2021/08/11 04:47:42;;;;;;;68.28;17.42;;;;;;;;;;5054613;28;20440;-84
2021/08/11 04:50:08;;;;;;;74.80;17.20;;;;;;;;;;5054821;28;20503;-84
2021/08/11 04:52:34;;;;;;;88.47;16.02;;;;;;;;;;5054116;28;20029;-84
2021/08/11 04:55:01;;;;;;;63.83;15.90;;;;;;;;;;5062807;28;20048;-84
2021/08/11 04:57:27;;;;;;;153.73;15.93;;;;;;;;;;5060284;28;20060;-84
2021/08/11 04:59:52;;;;;;;77.18;15.13;;;;;;;;;;5059143;28;20043;-84
2021/08/11 05:02:17;;;;;;;156.95;18.27;;;;;;;;;;5059766;28;20074;-84
2021/08/11 05:04:43;;;;;;;133.52;15.90;;;;;;;;;;5041280;28;20024;-83
2021/08/11 05:07:08;;;;;;;117.57;16.33;;;;;;;;;;5058969;28;20485;-84
2021/08/11 05:09:34;;;;;;;208.60;14.88;;;;;;;;;;5059963;28;20035;-86
2021/08/11 05:11:59;;;;;;;130.35;16.25;;;;;;;;;;5082644;28;20029;-84
2021/08/11 05:14:24;;;;;;;142.00;18.67;;;;;;;;;;5064126;28;20024;-84
2021/08/11 05:16:50;;;;;;;156.23;19.42;;;;;;;;;;5063986;28;20056;-84
2021/08/11 05:19:15;;;;;;;131.98;17.55;;;;;;;;;;5061682;28;20029;-84
2021/08/11 05:21:40;;;;;;;104.25;16.25;;;;;;;;;;5078614;28;20021;-83
2021/08/11 05:24:06;;;;;;;130.18;15.57;;;;;;;;;;5061468;28;20052;-84
2021/08/11 05:26:31;;;;;;;70.15;17.40;;;;;;;;;;5061645;28;20043;-84
2021/08/11 05:28:57;;;;;;;63.15;17.33;;;;;;;;;;5060002;28;20051;-84
2021/08/11 05:31:22;;;;;;;88.50;17.08;;;;;;;;;;5059844;28;20141;-84
2021/08/11 05:33:48;;;;;;;78.97;17.90;;;;;;;;;;5059726;28;20369;-84
2021/08/11 05:36:13;;;;;;;108.72;21.05;;;;;;;;;;5041781;28;20033;-84
2021/08/11 05:38:39;;;;;;;124.63;18.40;;;;;;;;;;5073027;28;20021;-84
2021/08/11 05:41:04;;;;;;;111.93;17.00;;;;;;;;;;5039228;28;20033;-84
2021/08/11 05:43:30;;;;;;;77.80;17.00;;;;;;;;;;5057981;28;20097;-85
2021/08/11 05:45:55;;;;;;;82.88;16.85;;;;;;;;;;5063475;28;20084;-83
2021/08/11 05:48:22;;;;;;;45.30;16.90;;;;;;;;;;5062740;28;20029;-84
2021/08/11 05:50:47;;;;;;;47.63;17.92;;;;;;;;;;5054635;28;20027;-85
2021/08/11 05:53:13;;;;;;;110.55;20.17;;;;;;;;;;5071959;28;20033;-86
2021/08/11 05:55:38;;;;;;;128.30;20.25;;;;;;;;;;5061988;28;20028;-85
2021/08/11 05:58:04;;;;;;;78.40;18.80;;;;;;;;;;5042963;28;20047;-84
2021/08/11 06:00:29;;;;;;;69.53;18.77;;;;;;;;;;5042029;28;20020;-85
2021/08/11 06:02:57;;;;;;;91.38;19.00;;;;;;;;;;5060413;28;20056;-86
2021/08/11 06:05:22;;;;;;;70.45;19.45;;;;;;;;;;5059191;28;20028;-85
2021/08/11 06:07:48;;;;;;;58.72;19.05;;;;;;;;;;5059532;28;20035;-86
2021/08/11 06:10:13;;;;;;;47.08;18.88;;;;;;;;;;5065804;28;20033;-84
2021/08/11 06:12:39;;;;;;;72.93;20.55;;;;;;;;;;5058002;28;20074;-84
2021/08/11 06:15:05;;;;;;;61.15;18.92;;;;;;;;;;5057474;28;20435;-84
2021/08/11 06:17:31;;;;;;;71.72;18.73;;;;;;;;;;5057460;28;20385;-86
2021/08/11 06:19:56;;;;;;;47.78;18.75;;;;;;;;;;5056945;28;20096;-84
2021/08/11 06:22:22;;;;;;;88.03;19.48;;;;;;;;;;5057352;28;20118;-85
2021/08/11 06:24:48;;;;;;;55.22;18.02;;;;;;;;;;5057284;28;20024;-85
2021/08/11 06:27:13;;;;;;;80.60;17.70;;;;;;;;;;5056985;28;20112;-84
2021/08/11 06:29:38;;;;;;;51.75;17.83;;;;;;;;;;5056976;28;20029;-83
2021/08/11 06:32:05;;;;;;;49.30;17.70;;;;;;;;;;5063665;28;20494;-83
2021/08/11 06:34:30;;;;;;;32.80;16.92;;;;;;;;;;5039720;28;20040;-84
2021/08/11 06:36:56;;;;;;;36.38;18.10;;;;;;;;;;5057131;28;20480;-84
2021/08/11 06:39:22;;;;;;;29.02;17.02;;;;;;;;;;5037735;28;20031;-84
2021/08/11 06:41:47;;;;;;;30.42;17.58;;;;;;;;;;5056105;28;20025;-84
2021/08/11 06:44:12;;;;;;;33.03;17.55;;;;;;;;;;5058793;28;20078;-85
2021/08/11 06:46:38;;;;;;;32.88;15.70;;;;;;;;;;5056369;28;20023;-85
2021/08/11 06:49:03;;;;;;;40.17;17.88;;;;;;;;;;5056399;28;20388;-86
2021/08/11 06:51:29;;;;;;;39.53;17.60;;;;;;;;;;5057224;28;20107;-84
2021/08/11 06:53:54;;;;;;;29.50;17.17;;;;;;;;;;5056909;28;20021;-85
2021/08/11 06:56:19;;;;;;;29.92;16.73;;;;;;;;;;5072340;28;20023;-85
2021/08/11 06:58:45;;;;;;;28.00;16.85;;;;;;;;;;5056704;28;20435;-84
2021/08/11 07:01:10;;;;;;;27.42;15.93;;;;;;;;;;5056523;28;20059;-84
2021/08/11 07:03:35;;;;;;;28.83;16.20;;;;;;;;;;5039102;28;20013;-84
2021/08/11 07:06:01;;;;;;;32.45;16.40;;;;;;;;;;5057853;28;20032;-84
2021/08/11 07:08:27;;;;;;;27.52;16.25;;;;;;;;;;5057114;28;20025;-85
2021/08/11 07:10:52;;;;;;;25.48;15.32;;;;;;;;;;5057167;28;20108;-85
2021/08/11 07:13:19;;;;;;;24.92;15.52;;;;;;;;;;5058445;28;20112;-86
2021/08/11 07:15:44;;;;;;;34.72;16.85;;;;;;;;;;5057933;28;20398;-84
2021/08/11 07:18:12;;;;;;;26.35;16.35;;;;;;;;;;5064791;28;20116;-84
2021/08/11 07:20:37;;;;;;;25.27;15.98;;;;;;;;;;5061055;28;20100;-85
2021/08/11 07:23:04;;;;;;;25.30;15.80;;;;;;;;;;5042530;28;20028;-84
2021/08/11 07:25:29;;;;;;;25.35;16.65;;;;;;;;;;5080942;28;20029;-84
2021/08/11 07:27:55;;;;;;;27.95;17.42;;;;;;;;;;5068269;28;20032;-86
2021/08/11 07:30:20;;;;;;;25.63;16.80;;;;;;;;;;5060943;28;20028;-86
2021/08/11 07:32:46;;;;;;;25.02;15.95;;;;;;;;;;5041540;28;20047;-85
2021/08/11 07:35:12;;;;;;;30.92;17.20;;;;;;;;;;5059851;28;20039;-86
2021/08/11 07:37:52;;;;;;;28.48;16.08;;;;;;;;;;5040048;28;20025;-86
2021/08/11 07:40:19;;;;;;;28.77;16.48;;;;;;;;;;5056298;28;20049;-84
2021/08/11 07:42:45;;;;;;;26.38;16.30;;;;;;;;;;5039724;28;20021;-84
2021/08/11 07:45:12;;;;;;;22.75;15.80;;;;;;;;;;5038701;28;20392;-84
2021/08/11 07:47:38;;;;;;;24.15;16.13;;;;;;;;;;5064162;28;20024;-85
2021/08/11 07:50:04;;;;;;;23.05;14.85;;;;;;;;;;5059818;28;20028;-84
2021/08/11 07:52:30;;;;;;;24.30;14.93;;;;;;;;;;5058534;28;20029;-84
2021/08/11 07:54:55;;;;;;;25.30;16.00;;;;;;;;;;5058371;28;20028;-85
2021/08/11 07:57:20;;;;;;;22.95;15.02;;;;;;;;;;5058281;28;20028;-84
2021/08/11 07:59:46;;;;;;;21.30;15.57;;;;;;;;;;5057827;28;20020;-85
2021/08/11 08:02:13;;;;;;;21.80;15.52;;;;;;;;;;5057891;28;20021;-84
2021/08/11 08:04:40;;;;;;;22.73;15.48;;;;;;;;;;5057289;28;20021;-85
2021/08/11 08:07:06;;;;;;;22.83;15.30;;;;;;;;;;5078866;28;20021;-84
2021/08/11 08:09:31;;;;;;;26.40;16.73;;;;;;;;;;5057940;28;20028;-84
2021/08/11 08:11:57;;;;;;;22.75;15.30;;;;;;;;;;5056030;28;20024;-84
2021/08/11 08:14:22;;;;;;;24.48;15.75;;;;;;;;;;5064489;28;20032;-85
2021/08/11 08:16:47;;;;;;;22.17;15.20;;;;;;;;;;5071218;28;20025;-85
2021/08/11 08:19:13;;;;;;;24.08;16.02;;;;;;;;;;5065070;28;20043;-85
2021/08/11 08:21:38;;;;;;;24.45;15.32;;;;;;;;;;5059297;28;20043;-84
2021/08/11 08:24:04;;;;;;;26.08;16.48;;;;;;;;;;5040832;28;20017;-86
2021/08/11 08:26:29;;;;;;;25.67;16.23;;;;;;;;;;5058998;28;20441;-85
2021/08/11 08:28:55;;;;;;;33.42;18.52;;;;;;;;;;5058805;28;20151;-85
2021/08/11 08:31:20;;;;;;;23.83;17.00;;;;;;;;;;5062263;28;20484;-85
2021/08/11 08:33:45;;;;;;;24.65;17.08;;;;;;;;;;5061422;28;20519;-85
2021/08/11 08:36:11;;;;;;;21.23;15.70;;;;;;;;;;5061935;28;20021;-85
2021/08/11 08:38:36;;;;;;;29.17;17.08;;;;;;;;;;5058740;28;20421;-85
2021/08/11 08:41:02;;;;;;;22.38;16.90;;;;;;;;;;5058711;28;20515;-85
2021/08/11 08:43:28;;;;;;;30.15;18.60;;;;;;;;;;5063389;28;20499;-84
2021/08/11 08:45:54;;;;;;;25.02;17.08;;;;;;;;;;5063665;28;20029;-84
2021/08/11 08:48:20;;;;;;;28.90;18.10;;;;;;;;;;5062396;28;20127;-85
2021/08/11 08:50:49;;;;;;;27.27;18.75;;;;;;;;;;5061162;28;20055;-85
2021/08/11 08:53:20;;;;;;;29.63;17.73;;;;;;;;;;5075548;28;20032;-84
2021/08/11 08:55:46;;;;;;;26.23;17.55;;;;;;;;;;5068308;28;20017;-84
2021/08/11 08:58:12;;;;;;;25.63;17.92;;;;;;;;;;5059464;28;20021;-84
2021/08/11 09:00:37;;;;;;;35.75;17.75;;;;;;;;;;5065975;28;20105;-85
2021/08/11 09:03:04;;;;;;;23.40;18.20;;;;;;;;;;5050142;28;20472;-86
2021/08/11 09:05:29;;;;;;;27.45;17.30;;;;;;;;;;5046240;28;20025;-85
2021/08/11 09:07:55;;;;;;;28.75;18.88;;;;;;;;;;5062420;28;20090;-85
2021/08/11 09:10:26;;;;;;;25.55;17.45;;;;;;;;;;5062664;28;20047;-86
2021/08/11 09:12:54;;;;;;;28.08;19.73;;;;;;;;;;5064465;28;20120;-86
2021/08/11 09:15:43;;;;;;;35.13;23.58;;;;;;;;;;5045096;28;20025;-85
2021/08/11 09:18:11;;;;;;;33.50;22.98;;;;;;;;;;5061977;28;20032;-86
2021/08/11 09:20:37;;;;;;;32.28;23.42;;;;;;;;;;5078209;28;20078;-85
2021/08/11 09:23:03;;;;;;;35.53;24.15;;;;;;;;;;5062263;28;20390;-86
2021/08/11 09:25:28;;;;;;;36.65;25.25;;;;;;;;;;5067476;28;20036;-85
2021/08/11 09:27:54;;;;;;;29.33;21.08;;;;;;;;;;5064169;28;20029;-85
2021/08/11 09:30:21;;;;;;;32.38;22.65;;;;;;;;;;5063115;28;20024;-86
2021/08/11 09:33:04;;;;;;;31.10;22.67;;;;;;;;;;5045978;28;20029;-86
2021/08/11 09:35:32;;;;;;;37.30;23.33;;;;;;;;;;5062260;28;20025;-85
2021/08/11 09:38:00;;;;;;;34.20;23.15;;;;;;;;;;5042560;28;20025;-85
2021/08/11 09:40:28;;;;;;;33.88;22.23;;;;;;;;;;5059727;28;20120;-84
2021/08/11 09:43:09;;;;;;;32.13;22.88;;;;;;;;;;5063007;28;20025;-85
2021/08/11 09:45:51;;;;;;;30.48;21.08;;;;;;;;;;5066900;28;20016;-86
2021/08/11 09:48:18;;;;;;;36.63;22.90;;;;;;;;;;5084202;28;20025;-85
2021/08/11 09:50:45;;;;;;;33.05;22.58;;;;;;;;;;5069758;28;20032;-85
2021/08/11 09:53:13;;;;;;;26.83;18.83;;;;;;;;;;5069237;28;20036;-85
2021/08/11 09:55:54;;;;;;;14.68;11.27;;;;;;;;;;5069489;28;20025;-85
2021/08/11 09:58:20;;;;;;;18.27;11.60;;;;;;;;;;5068933;28;20081;-86
2021/08/11 10:00:45;;;;;;;15.63;9.75;;;;;;;;;;5085523;28;20028;-85
2021/08/11 10:03:11;;;;;;;21.38;10.35;;;;;;;;;;5069806;28;20031;-86
2021/08/11 10:05:40;;;;;;;15.60;10.68;;;;;;;;;;5050116;28;20093;-86
2021/08/11 10:08:06;;;;;;;12.65;8.40;;;;;;;;;;5052490;28;20025;-86
2021/08/11 10:10:48;;;;;;;11.85;7.07;;;;;;;;;;5070221;28;20088;-88
2021/08/11 10:13:19;;;;;;;7.03;5.32;;;;;;;;;;5068595;28;20029;-84
2021/08/11 10:15:46;;;;;;;8.80;5.50;;;;;;;;;;5066647;28;20032;-84
2021/08/11 10:18:13;;;;;;;6.35;5.57;;;;;;;;;;5083303;28;20033;-84
2021/08/11 10:20:41;;;;;;;9.52;4.82;;;;;;;;;;5068771;28;20051;-85
2021/08/11 10:23:16;;;;;;;8.63;4.38;;;;;;;;;;5050922;28;20021;-86
2021/08/11 10:25:43;;;;;;;7.35;4.55;;;;;;;;;;5050459;28;20021;-86
2021/08/11 10:28:09;;;;;;;6.10;4.45;;;;;;;;;;5050523;28;20029;-85
2021/08/11 10:30:35;;;;;;;7.47;4.78;;;;;;;;;;5068779;28;20063;-85
2021/08/11 10:33:01;;;;;;;8.55;5.38;;;;;;;;;;5050424;28;20021;-84
2021/08/11 10:35:29;;;;;;;13.85;6.32;;;;;;;;;;5052674;28;20033;-85
2021/08/11 10:37:58;;;;;;;11.32;5.47;;;;;;;;;;5072474;28;20005;-87
2021/08/11 10:40:23;;;;;;;9.65;5.15;;;;;;;;;;5074764;28;20028;-86
2021/08/11 10:42:56;;;;;;;8.05;5.78;;;;;;;;;;5075860;28;20047;-88
2021/08/11 10:45:24;;;;;;;9.27;5.20;;;;;;;;;;5072868;28;20039;-85
2021/08/11 10:47:50;;;;;;;10.60;5.43;;;;;;;;;;5069563;28;20100;-86
2021/08/11 10:50:15;;;;;;;7.78;5.40;;;;;;;;;;5069963;28;20021;-86
2021/08/11 10:52:41;;;;;;;9.20;5.85;;;;;;;;;;5083770;28;20044;-86
2021/08/11 10:55:07;;;;;;;11.23;6.20;;;;;;;;;;5068757;28;20059;-86
2021/08/11 10:57:37;;;;;;;9.43;5.82;;;;;;;;;;5068848;28;20025;-85
2021/08/11 11:00:05;;;;;;;7.40;4.90;;;;;;;;;;5069380;28;20028;-86
2021/08/11 11:02:36;;;;;;;8.38;4.95;;;;;;;;;;5054390;28;20063;-85
2021/08/11 11:05:03;;;;;;;8.13;4.65;;;;;;;;;;5067523;28;20036;-85
2021/08/11 11:07:28;;;;;;;8.77;5.30;;;;;;;;;;5067181;28;20031;-85
2021/08/11 11:10:24;;;;;;;7.85;5.05;;;;;;;;;;5067474;28;20029;-84
2021/08/11 11:12:50;;;;;;;8.35;4.43;;;;;;;;;;5067601;28;20480;-85
2021/08/11 11:15:15;;;;;;;7.45;3.95;;;;;;;;;;5067480;28;20036;-85
2021/08/11 11:18:10;;;;;;;6.28;3.40;;;;;;;;;;5068126;28;20016;-85
2021/08/11 11:20:38;;;;;;;5.68;4.10;;;;;;;;;;5052894;28;20060;-83
2021/08/11 11:23:06;;;;;;;5.97;3.50;;;;;;;;;;5050300;28;20025;-85
2021/08/11 11:25:55;;;;;;;4.72;3.63;;;;;;;;;;5083650;28;20056;-85
2021/08/11 11:28:42;;;;;;;5.80;4.25;;;;;;;;;;5067616;28;20021;-86
2021/08/11 11:31:45;;;;;;;8.52;4.80;;;;;;;;;;5068055;28;20021;-86
2021/08/11 11:34:28;;;;;;;6.18;3.85;;;;;;;;;;5072036;28;20029;-84
2021/08/11 11:36:57;;;;;;;;;;;;;;;;;;5053015;28;20096;-84
2021/08/11 11:39:28;;;;;;;8.88;4.18;;;;;;;;;;5084455;28;19909;-87
2021/08/11 11:42:08;;;;;;;5.38;3.42;;;;;;;;;;5050167;28;20460;-84
2021/08/11 11:44:50;;;;;;;9.52;3.90;;;;;;;;;;5067768;28;20029;-84
2021/08/11 11:47:34;;;;;;;6.23;3.13;;;;;;;;;;5068140;28;20036;-86
2021/08/11 11:52:35;;;;;;;7.25;4.57;;;;;;;;;;5182019;22;20073;-79
2021/08/11 11:55:00;;;;;;;8.32;4.97;;;;;;;;;;5105176;28;20325;-77
2021/08/11 11:57:29;;;;;;;8.85;4.90;;;;;;;;;;5097661;28;20024;-79
2021/08/11 11:59:55;;;;;;;7.93;4.55;;;;;;;;;;5083770;28;20078;-77
2021/08/11 12:02:22;;;;;;;6.90;4.40;;;;;;;;;;5075386;28;20020;-77
2021/08/11 12:05:00;;;;;;;6.57;4.63;;;;;;;;;;5074974;28;20476;-77
2021/08/11 12:07:26;;;;;;;7.65;5.75;;;;;;;;;;5055577;28;20037;-77
2021/08/11 12:09:52;;;;;;;6.38;4.78;;;;;;;;;;5056348;28;20043;-77
2021/08/11 12:12:18;;;;;;;9.63;5.63;;;;;;;;;;5056476;28;20029;-76
2021/08/11 12:14:43;;;;;;;6.28;5.00;;;;;;;;;;5056585;28;20389;-77
2021/08/11 12:17:31;;;;;;;9.23;5.03;;;;;;;;;;5055272;28;20024;-77
2021/08/11 12:19:57;;;;;;;5.30;3.67;;;;;;;;;;5067334;28;20029;-78
2021/08/11 12:22:33;;;;;;;7.75;4.28;;;;;;;;;;5075969;28;20143;-77
2021/08/11 12:24:59;;;;;;;6.82;4.65;;;;;;;;;;5075410;28;20029;-77
2021/08/11 12:27:25;;;;;;;7.85;5.22;;;;;;;;;;5060761;28;20025;-78
2021/08/11 12:30:17;;;;;;;10.85;5.80;;;;;;;;;;5055213;28;20032;-78
2021/08/11 12:32:42;;;;;;;9.50;5.88;;;;;;;;;;5057671;28;20040;-78
2021/08/11 12:35:11;;;;;;;7.28;5.25;;;;;;;;;;5066203;28;20492;-77
2021/08/11 12:37:47;;;;;;;8.10;5.60;;;;;;;;;;5077223;28;20416;-78
2021/08/11 12:40:35;;;;;;;10.95;5.47;;;;;;;;;;5077912;28;20021;-77
2021/08/11 12:43:03;;;;;;;9.48;6.18;;;;;;;;;;5075629;28;20115;-77
2021/08/11 12:45:44;;;;;;;8.18;5.85;;;;;;;;;;5076381;28;20107;-77
2021/08/11 12:48:27;;;;;;;9.13;5.60;;;;;;;;;;5077738;28;20043;-78
2021/08/11 12:50:54;;;;;;;8.95;6.38;;;;;;;;;;5076881;28;20040;-78
2021/08/11 12:53:27;;;;;;;7.85;5.55;;;;;;;;;;5062287;28;20071;-78
2021/08/11 12:56:15;;;;;;;11.48;6.22;;;;;;;;;;5055760;28;20025;-77
2021/08/11 12:59:04;;;;;;;9.32;5.90;;;;;;;;;;5055369;28;20025;-78
2021/08/11 13:01:39;;;;;;;8.32;5.93;;;;;;;;;;5053425;28;20052;-77
2021/08/11 13:04:07;;;;;;;10.90;6.57;;;;;;;;;;5056571;28;20130;-77
2021/08/11 13:06:39;;;;;;;8.15;5.43;;;;;;;;;;5072611;28;20031;-77
2021/08/11 13:09:06;;;;;;;9.98;5.78;;;;;;;;;;5073131;28;20029;-77
2021/08/11 13:11:49;;;;;;;8.82;6.18;;;;;;;;;;5073343;28;20399;-79
2021/08/11 13:14:15;;;;;;;8.95;6.00;;;;;;;;;;5072701;28;20024;-78
2021/08/11 13:17:02;;;;;;;9.45;6.50;;;;;;;;;;5075907;28;20117;-77
2021/08/11 13:19:28;;;;;;;9.02;5.90;;;;;;;;;;5075604;28;20040;-77
2021/08/11 13:21:54;;;;;;;11.25;6.47;;;;;;;;;;5076179;28;20032;-77
2021/08/11 13:24:21;;;;;;;11.68;7.07;;;;;;;;;;5077485;28;20385;-79
2021/08/11 13:26:49;;;;;;;11.13;6.78;;;;;;;;;;5077586;28;20488;-78
2021/08/11 13:29:35;;;;;;;8.77;6.22;;;;;;;;;;5069120;28;20077;-78
2021/08/11 13:32:01;;;;;;;8.48;5.72;;;;;;;;;;5058051;28;20024;-78
2021/08/11 13:34:27;;;;;;;13.15;6.30;;;;;;;;;;5068542;28;20379;-79
2021/08/11 13:36:53;;;;;;;10.73;6.13;;;;;;;;;;5076558;28;20095;-77
2021/08/11 13:39:19;;;;;;;10.55;6.07;;;;;;;;;;5076269;28;20499;-78
2021/08/11 13:41:44;;;;;;;8.55;5.88;;;;;;;;;;5077764;28;20028;-78
2021/08/11 13:44:13;;;;;;;8.18;5.57;;;;;;;;;;5078831;28;20043;-78
2021/08/11 13:46:40;;;;;;;9.73;6.88;;;;;;;;;;5079803;28;20020;-79
2021/08/11 13:49:07;;;;;;;9.90;6.40;;;;;;;;;;5073124;28;20500;-76
2021/08/11 13:51:33;;;;;;;9.73;5.68;;;;;;;;;;5059374;28;20399;-78
2021/08/11 13:53:58;;;;;;;9.52;5.72;;;;;;;;;;5058956;28;20116;-78
2021/08/11 13:56:24;;;;;;;13.27;6.38;;;;;;;;;;5059535;28;20024;-78
2021/08/11 13:58:50;;;;;;;11.48;6.38;;;;;;;;;;5061788;28;20032;-79
2021/08/11 14:01:16;;;;;;;12.48;6.82;;;;;;;;;;5078596;28;20061;-79
2021/08/11 14:03:42;;;;;;;11.45;5.68;;;;;;;;;;5078174;28;20020;-78
2021/08/11 14:06:07;;;;;;;9.27;6.35;;;;;;;;;;5079228;28;20025;-78
2021/08/11 14:08:33;;;;;;;9.90;5.95;;;;;;;;;;5079012;28;20035;-78
2021/08/11 14:10:59;;;;;;;11.15;6.80;;;;;;;;;;5077817;28;20068;-79
2021/08/11 14:13:24;;;;;;;12.65;5.90;;;;;;;;;;5079159;28;20116;-79
2021/08/11 14:15:51;;;;;;;10.52;6.13;;;;;;;;;;5079412;28;20086;-79
2021/08/11 14:18:17;;;;;;;6.70;4.78;;;;;;;;;;5078252;28;20032;-78
2021/08/11 14:20:43;;;;;;;9.13;5.32;;;;;;;;;;5077226;28;20028;-78
2021/08/11 14:23:10;;;;;;;5.88;4.22;;;;;;;;;;5078974;28;20016;-78
2021/08/11 14:25:36;;;;;;;12.07;4.95;;;;;;;;;;5067132;28;20036;-79
2021/08/11 14:28:02;;;;;;;8.25;5.35;;;;;;;;;;5055996;28;20149;-78
2021/08/11 14:30:27;;;;;;;11.15;4.13;;;;;;;;;;5058590;28;20020;-79
2021/08/11 14:32:53;;;;;;;8.80;4.82;;;;;;;;;;5062048;28;20472;-77